WetterOnline ( https://www.wetteronline.de )

Wetter aktuell Magdeburg

Aktuelles Wetter: Ummendorf (163m)

6-stündlich | Neueste Meldungen
Ortszeit Temperatur Wetter
So, 14.04. 20:00 12.0° C bedeckt
So, 14.04. 14:00 14.2° C wolkig
So, 14.04. 8:00 13.7° C bewölkt
So, 14.04. 2:00 14.8° C wolkig
Sa, 13.04. 20:00 18.1° C wolkig
Sa, 13.04. 14:00 19.8° C bedeckt
Sa, 13.04. 8:00 13.3° C wolkig
Sa, 13.04. 2:00 12.5° C bedeckt
Ortszeit Temperatur Wetter
So, 14.04. 22:00 10.6° C bedeckt
So, 14.04. 21:50 10.6° C bedeckt
So, 14.04. 21:40 10.7° C bedeckt
So, 14.04. 21:30 10.6° C bedeckt
So, 14.04. 21:20 10.6° C bedeckt
So, 14.04. 21:10 10.6° C bedeckt
So, 14.04. 21:00 10.6° C bedeckt
So, 14.04. 20:30 11.1° C bedeckt
So, 14.04. 20:00 12.0° C bedeckt
So, 14.04. 19:30 12.3° C bedeckt
So, 14.04. 19:00 13.3° C bewölkt
Ortszeit Relative Feuchte Sichtweite
So, 14.04. 20:00 49% 65 km
So, 14.04. 14:00 45% 50 km
So, 14.04. 8:00 73% 55 km
So, 14.04. 2:00 77% 50 km
Sa, 13.04. 20:00 70% 55 km
Sa, 13.04. 14:00 64% 55 km
Sa, 13.04. 8:00 87% 30 km
Sa, 13.04. 2:00 88% 35 km
Ortszeit Relative Feuchte Sichtweite
So, 14.04. 22:00 57% 60 km
So, 14.04. 21:50 57% -
So, 14.04. 21:40 55% -
So, 14.04. 21:30 56% 65 km
So, 14.04. 21:20 56% -
So, 14.04. 21:10 56% -
So, 14.04. 21:00 57% >70 km
So, 14.04. 20:30 53% 55 km
So, 14.04. 20:00 49% 65 km
So, 14.04. 19:30 50% 65 km
So, 14.04. 19:00 48% 55 km
Ortszeit Niederschlagsmenge Niederschlagsart
So, 14.04. 20:00 0.0 l/m2 in 12 Std. -
So, 14.04. 14:00 0.0 l/m2 in 6 Std. -
So, 14.04. 8:00 0.0 l/m2 in 12 Std. -
So, 14.04. 2:00 0.0 l/m2 in 6 Std. -
Sa, 13.04. 20:00 0.0 l/m2 in 12 Std. -
Sa, 13.04. 14:00 0.0 l/m2 in 6 Std. -
Sa, 13.04. 8:00 0.0 l/m2 in 12 Std. -
Sa, 13.04. 2:00 0.0 l/m2 in 6 Std. -
Ortszeit Niederschlagsmenge Niederschlagsart
So, 14.04. 22:00 0.0 l/m2 in 1 Std. -
So, 14.04. 21:50 keine Meldung -
So, 14.04. 21:40 keine Meldung -
So, 14.04. 21:30 0.0 l/m2 in 30 Min -
So, 14.04. 21:20 keine Meldung -
So, 14.04. 21:10 keine Meldung -
So, 14.04. 21:00 0.0 l/m2 in 1 Std. -
So, 14.04. 20:30 0.0 l/m2 in 30 Min -
So, 14.04. 20:00 0.0 l/m2 in 1 Std. -
So, 14.04. 19:30 0.0 l/m2 in 30 Min -
So, 14.04. 19:00 0.0 l/m2 in 1 Std. -
Ortszeit Stärke Spitze Richtung
km/h Bft. km/h Grad Sektor
So, 14.04. 20:00 18 3 58 310° NW
So, 14.04. 14:00 37 5 54 290° W
So, 14.04. 8:00 26 4 48 280° W
So, 14.04. 2:00 17 3 33 250° W
Sa, 13.04. 20:00 9 2 48 190° S
Sa, 13.04. 14:00 35 5 52 250° W
Sa, 13.04. 8:00 15 3 22 260° W
Sa, 13.04. 2:00 15 3 28 260° W
Ortszeit Stärke Spitze Richtung
km/h Bft. km/h Grad Sektor
So, 14.04. 22:00 9 2 19 310° NW
So, 14.04. 21:50 9 2 - 310° NW
So, 14.04. 21:40 11 2 - 320° NW
So, 14.04. 21:30 11 2 18 320° NW
So, 14.04. 21:20 11 2 - 320° NW
So, 14.04. 21:10 11 2 - 320° NW
So, 14.04. 21:00 7 2 22 300° NW
So, 14.04. 20:30 11 2 22 300° NW
So, 14.04. 20:00 18 3 32 310° NW
So, 14.04. 19:30 19 3 33 300° NW
So, 14.04. 19:00 22 4 39 300° NW
Ortszeit Untergrenze Bedeckung Gattung
total tief tief mittel hoch
So, 14.04. 20:00 5700 m 8/8 8/8 - - -
So, 14.04. 14:00 1500 m 7/8 2/8 - - -
So, 14.04. 8:00 990 m 8/8 7/8 - - -
So, 14.04. 2:00 8100 m 8/8 0/8 - - -
Sa, 13.04. 20:00 7500 m 8/8 0/8 - - -
Sa, 13.04. 14:00 6900 m 8/8 8/8 - - -
Sa, 13.04. 8:00 7500 m 8/8 0/8 - - -
Sa, 13.04. 2:00 6600 m 8/8 8/8 - - -
Ortszeit Bedeckungsgrad in Achtel und Wolkenuntergrenze
So, 14.04. 22:00 8(3900m) 8(6000m)
So, 14.04. 21:50 8(3900m) 8(6000m)
So, 14.04. 21:40 8
So, 14.04. 21:30 8(4200m) 8(8700m)
So, 14.04. 21:20 8(4200m) 8(8700m)
So, 14.04. 21:10 8
So, 14.04. 21:00 8(4800m) 8(8100m)
So, 14.04. 20:30 8(5400m)
So, 14.04. 20:00 8(5700m) 8(7500m) 8(9000m)
So, 14.04. 19:30 8(5700m) 8(7500m) 8(9000m)
So, 14.04. 19:00 7(6000m) 8(9000m)
Ortszeit Luftdruck NN (hPa) Tendenz (hPa in 3 Std.)
So, 14.04. 20:00 1018 - 0,8
So, 14.04. 14:00 1020 + 0,4
So, 14.04. 8:00 1018 + 1,6
So, 14.04. 2:00 1016 - 1,2
Sa, 13.04. 20:00 1019 - 2,3
Sa, 13.04. 14:00 1024 - 1,2
Sa, 13.04. 8:00 1026 0,0
Sa, 13.04. 2:00 1027 - 0,4
Ortszeit Luftdruck NN (hPa) Tendenz (hPa in 3 Std.)
So, 14.04. 22:00 1018 - 0,7
So, 14.04. 21:50 1018 keine Meldung
So, 14.04. 21:40 1018 keine Meldung
So, 14.04. 21:30 1018 - 0,6
So, 14.04. 21:20 1018 keine Meldung
So, 14.04. 21:10 1018 keine Meldung
So, 14.04. 21:00 1018 - 0,5
So, 14.04. 20:30 1018 - 0,7
So, 14.04. 20:00 1018 - 0,8
So, 14.04. 19:30 1018 - 0,9
So, 14.04. 19:00 1018 - 1,2
Ortszeit Schneehöhe (cm)
So, 14.04. 20:00 0
So, 14.04. 14:00 0
So, 14.04. 8:00 0
So, 14.04. 2:00 0
Sa, 13.04. 20:00 0
Sa, 13.04. 14:00 0
Sa, 13.04. 8:00 0
Sa, 13.04. 2:00 0
Ortszeit Schneehöhe (cm)
So, 14.04. 22:00 0
So, 14.04. 21:50 0
So, 14.04. 21:40 -
So, 14.04. 21:30 0
So, 14.04. 21:20 0
So, 14.04. 21:10 -
So, 14.04. 21:00 0
So, 14.04. 20:30 0
So, 14.04. 20:00 0
So, 14.04. 19:30 0
So, 14.04. 19:00 0
Link zu dieser Seite / Seite empfehlen

Das Wetter in ...